sensor_id;sensor_type;location;lat;lon;timestamp;pressure;altitude;pressure_sealevel;temperature;humidity
9439;BME280;5176;42.622;25.386;2023-01-29T00:01:16;97254.19;;;3.65;88.33
9439;BME280;5176;42.622;25.386;2023-01-29T00:03:45;97254.88;;;3.70;88.87
9439;BME280;5176;42.622;25.386;2023-01-29T00:06:12;97254.75;;;3.73;87.68
9439;BME280;5176;42.622;25.386;2023-01-29T00:08:40;97257.03;;;3.82;89.12
9439;BME280;5176;42.622;25.386;2023-01-29T00:11:08;97258.81;;;3.80;87.93
9439;BME280;5176;42.622;25.386;2023-01-29T00:13:35;97267.47;;;3.79;86.92
9439;BME280;5176;42.622;25.386;2023-01-29T00:16:03;97260.41;;;3.85;88.27
9439;BME280;5176;42.622;25.386;2023-01-29T00:18:30;97254.13;;;3.90;87.09
9439;BME280;5176;42.622;25.386;2023-01-29T00:20:59;97264.28;;;3.96;88.13
9439;BME280;5176;42.622;25.386;2023-01-29T00:23:26;97261.41;;;3.80;85.86
9439;BME280;5176;42.622;25.386;2023-01-29T00:25:53;97258.31;;;3.71;85.42
9439;BME280;5176;42.622;25.386;2023-01-29T00:28:21;97257.75;;;3.63;86.13
9439;BME280;5176;42.622;25.386;2023-01-29T00:30:48;97255.78;;;3.69;87.06
9439;BME280;5176;42.622;25.386;2023-01-29T00:33:15;97258.03;;;3.78;88.33
9439;BME280;5176;42.622;25.386;2023-01-29T00:35:42;97258.81;;;3.80;87.10
9439;BME280;5176;42.622;25.386;2023-01-29T00:38:11;97253.34;;;3.88;86.06
9439;BME280;5176;42.622;25.386;2023-01-29T00:40:39;97263.38;;;3.97;86.65
9439;BME280;5176;42.622;25.386;2023-01-29T00:43:29;97264.16;;;3.99;90.58
9439;BME280;5176;42.622;25.386;2023-01-29T00:46:14;97261.56;;;3.99;88.81
9439;BME280;5176;42.622;25.386;2023-01-29T00:48:41;97264.84;;;4.04;88.96
9439;BME280;5176;42.622;25.386;2023-01-29T00:51:08;97270.31;;;3.97;83.78
9439;BME280;5176;42.622;25.386;2023-01-29T00:53:37;97270.63;;;3.88;84.49
9439;BME280;5176;42.622;25.386;2023-01-29T00:56:05;97267.38;;;3.82;84.45
9439;BME280;5176;42.622;25.386;2023-01-29T00:58:32;97272.25;;;3.67;85.70
9439;BME280;5176;42.622;25.386;2023-01-29T01:01:00;97271.19;;;3.72;87.49
9439;BME280;5176;42.622;25.386;2023-01-29T01:03:28;97264.06;;;3.79;90.10
9439;BME280;5176;42.622;25.386;2023-01-29T01:06:04;97270.97;;;3.78;89.23
9439;BME280;5176;42.622;25.386;2023-01-29T01:08:32;97272.56;;;3.82;89.47
9439;BME280;5176;42.622;25.386;2023-01-29T01:11:18;97271.41;;;3.66;89.62
9439;BME280;5176;42.622;25.386;2023-01-29T01:13:45;97264.34;;;3.46;90.02
9439;BME280;5176;42.622;25.386;2023-01-29T01:16:14;97271.13;;;3.50;91.40
9439;BME280;5176;42.622;25.386;2023-01-29T01:18:42;97276.78;;;3.37;91.75
9439;BME280;5176;42.622;25.386;2023-01-29T01:21:09;97274.84;;;3.43;93.54
9439;BME280;5176;42.622;25.386;2023-01-29T01:23:36;97280.91;;;3.42;94.17
9439;BME280;5176;42.622;25.386;2023-01-29T01:26:08;97272.41;;;3.39;96.29
9439;BME280;5176;42.622;25.386;2023-01-29T01:28:36;97285.41;;;3.37;96.59
9439;BME280;5176;42.622;25.386;2023-01-29T01:31:09;97287.50;;;3.26;96.19
9439;BME280;5176;42.622;25.386;2023-01-29T01:33:36;97282.19;;;3.31;97.49
9439;BME280;5176;42.622;25.386;2023-01-29T01:36:05;97278.63;;;3.33;98.15
9439;BME280;5176;42.622;25.386;2023-01-29T01:38:35;97284.84;;;3.29;97.18
9439;BME280;5176;42.622;25.386;2023-01-29T01:41:09;97291.75;;;3.28;98.21
9439;BME280;5176;42.622;25.386;2023-01-29T01:43:52;97289.69;;;3.38;98.77
9439;BME280;5176;42.622;25.386;2023-01-29T01:46:20;97287.22;;;3.35;97.18
9439;BME280;5176;42.622;25.386;2023-01-29T01:48:51;97291.28;;;3.42;97.33
9439;BME280;5176;42.622;25.386;2023-01-29T01:51:20;97282.63;;;3.43;97.35
9439;BME280;5176;42.622;25.386;2023-01-29T01:53:54;97291.31;;;3.41;97.49
9439;BME280;5176;42.622;25.386;2023-01-29T01:56:25;97288.06;;;3.36;97.56
9439;BME280;5176;42.622;25.386;2023-01-29T01:58:57;97289.41;;;3.21;95.91
9439;BME280;5176;42.622;25.386;2023-01-29T02:01:26;97297.59;;;3.35;96.80
9439;BME280;5176;42.622;25.386;2023-01-29T02:03:56;97296.25;;;3.48;97.22
9439;BME280;5176;42.622;25.386;2023-01-29T02:06:42;97298.53;;;3.58;96.45
9439;BME280;5176;42.622;25.386;2023-01-29T02:09:30;97293.28;;;3.59;95.86
9439;BME280;5176;42.622;25.386;2023-01-29T02:12:02;97295.03;;;3.59;95.63
9439;BME280;5176;42.622;25.386;2023-01-29T02:14:32;97299.63;;;3.50;92.63
9439;BME280;5176;42.622;25.386;2023-01-29T02:17:03;97295.03;;;3.59;94.67
9439;BME280;5176;42.622;25.386;2023-01-29T02:19:38;97305.72;;;3.49;93.36
9439;BME280;5176;42.622;25.386;2023-01-29T02:25:46;97300.00;;;3.40;90.59
9439;BME280;5176;42.622;25.386;2023-01-29T02:28:27;97305.81;;;3.46;91.81
9439;BME280;5176;42.622;25.386;2023-01-29T02:31:04;97304.75;;;3.52;93.64
9439;BME280;5176;42.622;25.386;2023-01-29T02:33:40;97302.91;;;3.55;94.95
9439;BME280;5176;42.622;25.386;2023-01-29T02:36:17;97303.78;;;3.56;94.77
9439;BME280;5176;42.622;25.386;2023-01-29T02:38:52;97308.13;;;3.54;95.31
9439;BME280;5176;42.622;25.386;2023-01-29T02:41:27;97304.03;;;3.48;96.14
9439;BME280;5176;42.622;25.386;2023-01-29T02:44:04;97309.22;;;3.48;96.98
9439;BME280;5176;42.622;25.386;2023-01-29T02:46:35;97302.28;;;3.49;98.46
9439;BME280;5176;42.622;25.386;2023-01-29T02:49:09;97301.31;;;3.51;98.89
9439;BME280;5176;42.622;25.386;2023-01-29T02:51:42;97302.09;;;3.53;98.68
9439;BME280;5176;42.622;25.386;2023-01-29T02:54:19;97305.31;;;3.62;100.00
9439;BME280;5176;42.622;25.386;2023-01-29T02:56:51;97310.31;;;3.66;99.68
9439;BME280;5176;42.622;25.386;2023-01-29T02:59:23;97311.41;;;3.59;97.38
9439;BME280;5176;42.622;25.386;2023-01-29T03:01:54;97314.06;;;3.58;96.85
9439;BME280;5176;42.622;25.386;2023-01-29T03:04:25;97313.03;;;3.63;97.75
9439;BME280;5176;42.622;25.386;2023-01-29T03:06:58;97310.50;;;3.62;97.48
9439;BME280;5176;42.622;25.386;2023-01-29T03:09:31;97313.09;;;3.60;97.93
9439;BME280;5176;42.622;25.386;2023-01-29T03:12:04;97317.34;;;3.63;98.68
9439;BME280;5176;42.622;25.386;2023-01-29T03:14:47;97313.94;;;3.61;99.22
9439;BME280;5176;42.622;25.386;2023-01-29T03:17:36;97316.81;;;3.53;100.00
9439;BME280;5176;42.622;25.386;2023-01-29T03:20:08;97319.41;;;3.53;100.00
9439;BME280;5176;42.622;25.386;2023-01-29T03:22:38;97322.97;;;3.50;100.00
9439;BME280;5176;42.622;25.386;2023-01-29T03:25:09;97323.03;;;3.49;100.00
9439;BME280;5176;42.622;25.386;2023-01-29T03:27:57;97316.94;;;3.50;100.00
9439;BME280;5176;42.622;25.386;2023-01-29T03:30:46;97324.28;;;3.37;100.00
9439;BME280;5176;42.622;25.386;2023-01-29T03:33:38;97324.16;;;3.40;100.00
9439;BME280;5176;42.622;25.386;2023-01-29T03:36:10;97329.53;;;3.36;100.00
9439;BME280;5176;42.622;25.386;2023-01-29T03:38:39;97334.84;;;3.31;100.00
9439;BME280;5176;42.622;25.386;2023-01-29T03:41:09;97335.38;;;3.41;100.00
9439;BME280;5176;42.622;25.386;2023-01-29T03:43:49;97331.84;;;3.43;100.00
9439;BME280;5176;42.622;25.386;2023-01-29T03:46:24;97332.53;;;3.48;100.00
9439;BME280;5176;42.622;25.386;2023-01-29T03:48:59;97338.41;;;3.53;100.00
9439;BME280;5176;42.622;25.386;2023-01-29T03:51:32;97335.81;;;3.53;100.00
9439;BME280;5176;42.622;25.386;2023-01-29T03:54:06;97336.13;;;3.44;100.00
9439;BME280;5176;42.622;25.386;2023-01-29T03:56:46;97334.59;;;3.39;100.00
9439;BME280;5176;42.622;25.386;2023-01-29T03:59:26;97339.88;;;3.36;100.00
9439;BME280;5176;42.622;25.386;2023-01-29T04:02:00;97341.63;;;3.35;100.00
9439;BME280;5176;42.622;25.386;2023-01-29T04:04:31;97345.72;;;3.42;100.00
9439;BME280;5176;42.622;25.386;2023-01-29T04:07:04;97337.88;;;3.44;100.00
9439;BME280;5176;42.622;25.386;2023-01-29T04:09:38;97348.31;;;3.41;100.00
9439;BME280;5176;42.622;25.386;2023-01-29T04:12:08;97345.97;;;3.35;100.00
9439;BME280;5176;42.622;25.386;2023-01-29T04:14:36;97349.28;;;3.38;100.00
9439;BME280;5176;42.622;25.386;2023-01-29T04:17:08;97346.84;;;3.34;100.00
9439;BME280;5176;42.622;25.386;2023-01-29T04:19:37;97343.59;;;3.28;100.00
9439;BME280;5176;42.622;25.386;2023-01-29T04:22:08;97360.00;;;3.27;100.00
9439;BME280;5176;42.622;25.386;2023-01-29T04:24:36;97358.31;;;3.26;100.00
9439;BME280;5176;42.622;25.386;2023-01-29T04:27:11;97344.75;;;3.18;100.00
9439;BME280;5176;42.622;25.386;2023-01-29T04:29:56;97357.78;;;3.17;100.00
9439;BME280;5176;42.622;25.386;2023-01-29T04:32:31;97353.97;;;3.27;100.00
9439;BME280;5176;42.622;25.386;2023-01-29T04:35:13;97359.31;;;3.22;100.00
9439;BME280;5176;42.622;25.386;2023-01-29T04:37:49;97366.06;;;3.26;100.00
9439;BME280;5176;42.622;25.386;2023-01-29T04:40:22;97364.59;;;3.19;100.00
9439;BME280;5176;42.622;25.386;2023-01-29T04:43:00;97363.66;;;3.22;100.00
9439;BME280;5176;42.622;25.386;2023-01-29T04:45:37;97366.38;;;3.17;100.00
9439;BME280;5176;42.622;25.386;2023-01-29T04:48:15;97364.69;;;3.16;100.00
9439;BME280;5176;42.622;25.386;2023-01-29T04:50:53;97370.41;;;3.26;100.00
9439;BME280;5176;42.622;25.386;2023-01-29T04:53:25;97377.09;;;3.33;100.00
9439;BME280;5176;42.622;25.386;2023-01-29T04:55:58;97376.50;;;3.25;100.00
9439;BME280;5176;42.622;25.386;2023-01-29T04:58:31;97375.34;;;3.07;100.00
9439;BME280;5176;42.622;25.386;2023-01-29T05:01:01;97377.91;;;3.09;100.00
9439;BME280;5176;42.622;25.386;2023-01-29T05:03:33;97379.00;;;3.00;100.00
9439;BME280;5176;42.622;25.386;2023-01-29T05:06:03;97382.38;;;3.04;100.00
9439;BME280;5176;42.622;25.386;2023-01-29T05:08:32;97386.72;;;3.03;100.00
9439;BME280;5176;42.622;25.386;2023-01-29T05:10:59;97387.22;;;2.86;100.00
9439;BME280;5176;42.622;25.386;2023-01-29T05:13:29;97379.63;;;2.80;100.00
9439;BME280;5176;42.622;25.386;2023-01-29T05:16:01;97395.03;;;2.85;100.00
9439;BME280;5176;42.622;25.386;2023-01-29T05:18:32;97398.22;;;2.94;100.00
9439;BME280;5176;42.622;25.386;2023-01-29T05:21:01;97410.44;;;2.89;100.00
9439;BME280;5176;42.622;25.386;2023-01-29T05:23:30;97408.78;;;2.87;100.00
9439;BME280;5176;42.622;25.386;2023-01-29T05:25:58;97414.13;;;2.82;100.00
9439;BME280;5176;42.622;25.386;2023-01-29T05:28:25;97416.66;;;2.84;100.00
9439;BME280;5176;42.622;25.386;2023-01-29T05:30:52;97416.34;;;2.93;100.00
9439;BME280;5176;42.622;25.386;2023-01-29T05:33:22;97414.25;;;2.78;100.00
9439;BME280;5176;42.622;25.386;2023-01-29T05:35:51;97420.19;;;2.81;100.00
9439;BME280;5176;42.622;25.386;2023-01-29T05:38:19;97414.91;;;2.84;100.00
9439;BME280;5176;42.622;25.386;2023-01-29T05:40:47;97425.63;;;2.72;100.00
9439;BME280;5176;42.622;25.386;2023-01-29T05:43:16;97421.28;;;2.72;100.00
9439;BME280;5176;42.622;25.386;2023-01-29T05:45:51;97430.75;;;2.73;100.00
9439;BME280;5176;42.622;25.386;2023-01-29T05:48:18;97429.47;;;2.59;100.00
9439;BME280;5176;42.622;25.386;2023-01-29T05:50:45;97428.56;;;2.60;100.00
9439;BME280;5176;42.622;25.386;2023-01-29T05:53:14;97435.97;;;2.72;100.00
9439;BME280;5176;42.622;25.386;2023-01-29T05:55:43;97438.50;;;2.75;100.00
9439;BME280;5176;42.622;25.386;2023-01-29T05:58:11;97441.75;;;2.80;100.00
9439;BME280;5176;42.622;25.386;2023-01-29T06:00:39;97446.06;;;2.81;100.00
9439;BME280;5176;42.622;25.386;2023-01-29T06:03:06;97454.09;;;2.72;100.00
9439;BME280;5176;42.622;25.386;2023-01-29T06:05:37;97457.81;;;2.63;100.00
9439;BME280;5176;42.622;25.386;2023-01-29T06:08:05;97449.25;;;2.60;100.00
9439;BME280;5176;42.622;25.386;2023-01-29T06:10:34;97460.41;;;2.63;100.00
9439;BME280;5176;42.622;25.386;2023-01-29T06:13:02;97462.94;;;2.65;100.00
9439;BME280;5176;42.622;25.386;2023-01-29T06:15:29;97462.69;;;2.72;100.00
9439;BME280;5176;42.622;25.386;2023-01-29T06:17:56;97469.72;;;2.69;100.00
9439;BME280;5176;42.622;25.386;2023-01-29T06:20:23;97474.97;;;2.66;100.00
9439;BME280;5176;42.622;25.386;2023-01-29T06:22:51;97475.53;;;2.77;100.00
9439;BME280;5176;42.622;25.386;2023-01-29T06:25:18;97476.25;;;2.82;100.00
9439;BME280;5176;42.622;25.386;2023-01-29T06:27:49;97476.47;;;2.75;100.00
9439;BME280;5176;42.622;25.386;2023-01-29T06:30:16;97478.97;;;2.78;100.00
9439;BME280;5176;42.622;25.386;2023-01-29T06:32:44;97480.47;;;2.85;100.00
9439;BME280;5176;42.622;25.386;2023-01-29T06:35:11;97476.38;;;2.78;100.00
9439;BME280;5176;42.622;25.386;2023-01-29T06:37:38;97489.19;;;2.82;100.00
9439;BME280;5176;42.622;25.386;2023-01-29T06:40:07;97488.25;;;2.85;100.00
9439;BME280;5176;42.622;25.386;2023-01-29T06:42:34;97489.03;;;2.88;100.00
9439;BME280;5176;42.622;25.386;2023-01-29T06:45:04;97498.56;;;2.86;100.00
9439;BME280;5176;42.622;25.386;2023-01-29T06:47:31;97492.53;;;2.86;100.00
9439;BME280;5176;42.622;25.386;2023-01-29T06:49:58;97498.66;;;2.83;100.00
9439;BME280;5176;42.622;25.386;2023-01-29T06:52:26;97506.81;;;2.99;100.00
9439;BME280;5176;42.622;25.386;2023-01-29T06:54:53;97493.59;;;3.08;100.00
9439;BME280;5176;42.622;25.386;2023-01-29T06:57:21;97504.00;;;3.07;100.00
9439;BME280;5176;42.622;25.386;2023-01-29T06:59:48;97508.44;;;3.03;100.00
9439;BME280;5176;42.622;25.386;2023-01-29T07:02:17;97506.69;;;3.04;100.00
9439;BME280;5176;42.622;25.386;2023-01-29T07:04:44;97507.41;;;3.09;100.00
9439;BME280;5176;42.622;25.386;2023-01-29T07:07:12;97497.06;;;3.07;100.00
9439;BME280;5176;42.622;25.386;2023-01-29T07:09:39;97509.47;;;3.25;100.00
9439;BME280;5176;42.622;25.386;2023-01-29T07:12:07;97508.63;;;3.25;100.00
9439;BME280;5176;42.622;25.386;2023-01-29T07:14:34;97503.88;;;3.11;100.00
9439;BME280;5176;42.622;25.386;2023-01-29T07:17:01;97508.06;;;3.15;100.00
9439;BME280;5176;42.622;25.386;2023-01-29T07:19:30;97510.84;;;3.09;100.00
9439;BME280;5176;42.622;25.386;2023-01-29T07:21:57;97510.47;;;3.21;100.00
9439;BME280;5176;42.622;25.386;2023-01-29T07:24:27;97508.94;;;3.14;100.00
9439;BME280;5176;42.622;25.386;2023-01-29T07:26:54;97514.03;;;3.17;100.00
9439;BME280;5176;42.622;25.386;2023-01-29T07:29:22;97521.59;;;3.25;100.00
9439;BME280;5176;42.622;25.386;2023-01-29T07:31:49;97514.75;;;3.22;100.00
9439;BME280;5176;42.622;25.386;2023-01-29T07:34:16;97513.06;;;3.21;100.00
9439;BME280;5176;42.622;25.386;2023-01-29T07:36:45;97518.44;;;3.14;100.00
9439;BME280;5176;42.622;25.386;2023-01-29T07:39:12;97521.81;;;3.17;100.00
9439;BME280;5176;42.622;25.386;2023-01-29T07:41:40;97516.50;;;3.22;100.00
9439;BME280;5176;42.622;25.386;2023-01-29T07:44:07;97523.16;;;3.31;100.00
9439;BME280;5176;42.622;25.386;2023-01-29T07:46:34;97518.50;;;3.42;100.00
9439;BME280;5176;42.622;25.386;2023-01-29T07:49:02;97527.13;;;3.42;100.00
9439;BME280;5176;42.622;25.386;2023-01-29T07:51:29;97525.97;;;3.51;100.00
9439;BME280;5176;42.622;25.386;2023-01-29T07:53:58;97530.19;;;3.53;100.00
9439;BME280;5176;42.622;25.386;2023-01-29T07:56:25;97530.50;;;3.44;100.00
9439;BME280;5176;42.622;25.386;2023-01-29T07:58:52;97527.00;;;3.45;100.00
9439;BME280;5176;42.622;25.386;2023-01-29T08:01:19;97538.94;;;3.51;100.00
9439;BME280;5176;42.622;25.386;2023-01-29T08:03:47;97543.81;;;3.60;100.00
9439;BME280;5176;42.622;25.386;2023-01-29T08:06:14;97540.72;;;3.49;100.00
9439;BME280;5176;42.622;25.386;2023-01-29T08:08:41;97541.56;;;3.49;100.00
9439;BME280;5176;42.622;25.386;2023-01-29T08:11:10;97541.22;;;3.60;100.00
9439;BME280;5176;42.622;25.386;2023-01-29T08:13:37;97544.44;;;3.68;100.00
9439;BME280;5176;42.622;25.386;2023-01-29T08:16:05;97545.91;;;3.77;100.00
9439;BME280;5176;42.622;25.386;2023-01-29T08:18:32;97543.06;;;3.85;100.00
9439;BME280;5176;42.622;25.386;2023-01-29T08:21:00;97541.50;;;3.79;100.00
9439;BME280;5176;42.622;25.386;2023-01-29T08:23:27;97544.69;;;3.87;100.00
9439;BME280;5176;42.622;25.386;2023-01-29T08:25:55;97551.19;;;4.00;100.00
9439;BME280;5176;42.622;25.386;2023-01-29T08:28:24;97546.59;;;4.08;100.00
9439;BME280;5176;42.622;25.386;2023-01-29T08:30:51;97554.28;;;4.12;100.00
9439;BME280;5176;42.622;25.386;2023-01-29T08:33:18;97550.63;;;4.17;100.00
9439;BME280;5176;42.622;25.386;2023-01-29T08:35:47;97559.22;;;4.19;100.00
9439;BME280;5176;42.622;25.386;2023-01-29T08:38:15;97563.47;;;4.22;100.00
9439;BME280;5176;42.622;25.386;2023-01-29T08:40:43;97561.53;;;4.27;100.00
9439;BME280;5176;42.622;25.386;2023-01-29T08:43:11;97554.81;;;4.21;100.00
9439;BME280;5176;42.622;25.386;2023-01-29T08:45:41;97562.59;;;4.21;100.00
9439;BME280;5176;42.622;25.386;2023-01-29T08:48:09;97558.31;;;4.20;100.00
9439;BME280;5176;42.622;25.386;2023-01-29T08:50:37;97556.41;;;4.25;100.00
9439;BME280;5176;42.622;25.386;2023-01-29T08:53:06;97569.13;;;4.33;100.00
9439;BME280;5176;42.622;25.386;2023-01-29T08:55:34;97562.88;;;4.38;100.00
9439;BME280;5176;42.622;25.386;2023-01-29T08:58:02;97566.47;;;4.34;100.00
9439;BME280;5176;42.622;25.386;2023-01-29T09:00:30;97566.66;;;4.30;98.63
9439;BME280;5176;42.622;25.386;2023-01-29T09:02:59;97568.13;;;4.37;99.83
9439;BME280;5176;42.622;25.386;2023-01-29T09:05:26;97567.34;;;4.35;97.15
9439;BME280;5176;42.622;25.386;2023-01-29T09:07:55;97567.22;;;4.38;97.29
9439;BME280;5176;42.622;25.386;2023-01-29T09:10:23;97571.38;;;4.44;96.59
9439;BME280;5176;42.622;25.386;2023-01-29T09:12:50;97569.75;;;4.40;95.08
9439;BME280;5176;42.622;25.386;2023-01-29T09:15:17;97580.00;;;4.44;94.50
9439;BME280;5176;42.622;25.386;2023-01-29T09:17:44;97572.09;;;4.47;97.15
9439;BME280;5176;42.622;25.386;2023-01-29T09:20:16;97572.91;;;4.49;94.70
9439;BME280;5176;42.622;25.386;2023-01-29T09:22:44;97568.44;;;4.53;93.94
9439;BME280;5176;42.622;25.386;2023-01-29T09:25:11;97574.28;;;4.59;94.64
9439;BME280;5176;42.622;25.386;2023-01-29T09:27:39;97568.25;;;4.59;93.77
9439;BME280;5176;42.622;25.386;2023-01-29T09:30:07;97564.31;;;4.47;94.09
9439;BME280;5176;42.622;25.386;2023-01-29T09:32:34;97560.56;;;4.56;94.14
9439;BME280;5176;42.622;25.386;2023-01-29T09:35:01;97561.09;;;4.65;94.59
9439;BME280;5176;42.622;25.386;2023-01-29T09:37:30;97553.88;;;4.74;93.25
9439;BME280;5176;42.622;25.386;2023-01-29T09:39:57;97550.34;;;4.76;94.81
9439;BME280;5176;42.622;25.386;2023-01-29T09:42:28;97552.03;;;4.77;93.77
9439;BME280;5176;42.622;25.386;2023-01-29T09:45:04;97543.88;;;4.86;93.32
9439;BME280;5176;42.622;25.386;2023-01-29T09:47:34;97547.31;;;4.87;93.63
9439;BME280;5176;42.622;25.386;2023-01-29T09:50:06;97536.31;;;4.80;91.38
9439;BME280;5176;42.622;25.386;2023-01-29T09:52:39;97541.50;;;4.80;88.53
9439;BME280;5176;42.622;25.386;2023-01-29T09:55:11;97540.84;;;4.75;83.62
9439;BME280;5176;42.622;25.386;2023-01-29T09:57:45;97538.69;;;4.86;86.44
9439;BME280;5176;42.622;25.386;2023-01-29T10:00:17;97536.72;;;4.93;86.97
9439;BME280;5176;42.622;25.386;2023-01-29T10:03:03;97529.53;;;5.00;85.58
9439;BME280;5176;42.622;25.386;2023-01-29T10:05:43;97536.28;;;5.05;83.09
9439;BME280;5176;42.622;25.386;2023-01-29T10:08:45;97528.13;;;5.14;84.61
9439;BME280;5176;42.622;25.386;2023-01-29T10:11:25;97524.22;;;5.26;83.69
9439;BME280;5176;42.622;25.386;2023-01-29T10:14:04;97529.19;;;5.32;81.29
9439;BME280;5176;42.622;25.386;2023-01-29T10:16:43;97522.91;;;5.38;81.46
9439;BME280;5176;42.622;25.386;2023-01-29T10:19:38;97517.47;;;5.44;80.78
9439;BME280;5176;42.622;25.386;2023-01-29T10:22:40;97522.53;;;5.47;81.27
9439;BME280;5176;42.622;25.386;2023-01-29T10:25:14;97513.00;;;5.47;78.16
9439;BME280;5176;42.622;25.386;2023-01-29T10:27:47;97514.75;;;5.47;78.04
9439;BME280;5176;42.622;25.386;2023-01-29T10:30:30;97507.69;;;5.51;77.01
9439;BME280;5176;42.622;25.386;2023-01-29T10:33:02;97510.38;;;5.47;77.21
9439;BME280;5176;42.622;25.386;2023-01-29T10:35:32;97505.25;;;5.46;78.99
9439;BME280;5176;42.622;25.386;2023-01-29T10:38:14;97502.50;;;5.51;80.53
9439;BME280;5176;42.622;25.386;2023-01-29T10:40:50;97502.34;;;5.54;78.91
9439;BME280;5176;42.622;25.386;2023-01-29T10:43:25;97497.53;;;5.44;78.88
9439;BME280;5176;42.622;25.386;2023-01-29T10:46:02;97496.84;;;5.39;79.44
9439;BME280;5176;42.622;25.386;2023-01-29T10:48:45;97489.78;;;5.43;81.65
9439;BME280;5176;42.622;25.386;2023-01-29T10:51:21;97485.50;;;5.42;78.98
9439;BME280;5176;42.622;25.386;2023-01-29T10:54:04;97485.19;;;5.50;79.23
9439;BME280;5176;42.622;25.386;2023-01-29T10:56:47;97485.81;;;5.56;82.43
9439;BME280;5176;42.622;25.386;2023-01-29T10:59:32;97487.34;;;5.60;76.61
9439;BME280;5176;42.622;25.386;2023-01-29T11:02:12;97481.38;;;5.58;76.26
9439;BME280;5176;42.622;25.386;2023-01-29T11:04:40;97479.00;;;5.52;77.25
9439;BME280;5176;42.622;25.386;2023-01-29T11:07:07;97476.47;;;5.51;77.35
9439;BME280;5176;42.622;25.386;2023-01-29T11:09:39;97473.88;;;5.51;76.25
9439;BME280;5176;42.622;25.386;2023-01-29T11:12:12;97476.34;;;5.54;78.83
9439;BME280;5176;42.622;25.386;2023-01-29T11:14:44;97473.66;;;5.57;77.29
9439;BME280;5176;42.622;25.386;2023-01-29T11:17:16;97466.38;;;5.65;77.06
9439;BME280;5176;42.622;25.386;2023-01-29T11:19:45;97474.00;;;5.69;74.68
9439;BME280;5176;42.622;25.386;2023-01-29T11:22:14;97465.28;;;5.70;76.63
9439;BME280;5176;42.622;25.386;2023-01-29T11:24:42;97466.19;;;5.69;75.26
9439;BME280;5176;42.622;25.386;2023-01-29T11:27:20;97454.59;;;5.56;73.78
9439;BME280;5176;42.622;25.386;2023-01-29T11:29:51;97465.16;;;5.52;76.85
9439;BME280;5176;42.622;25.386;2023-01-29T11:32:27;97462.25;;;5.59;82.78
9439;BME280;5176;42.622;25.386;2023-01-29T11:34:58;97460.72;;;5.55;83.85
9439;BME280;5176;42.622;25.386;2023-01-29T11:37:32;97457.59;;;5.67;84.07
9439;BME280;5176;42.622;25.386;2023-01-29T11:39:59;97457.13;;;5.58;82.68
9439;BME280;5176;42.622;25.386;2023-01-29T11:42:31;97456.78;;;5.45;83.37
9439;BME280;5176;42.622;25.386;2023-01-29T11:44:59;97457.19;;;5.34;86.55
9439;BME280;5176;42.622;25.386;2023-01-29T11:47:27;97454.25;;;5.22;89.50
9439;BME280;5176;42.622;25.386;2023-01-29T11:49:56;97443.66;;;5.04;92.06
9439;BME280;5176;42.622;25.386;2023-01-29T11:52:26;97449.56;;;5.08;93.90
9439;BME280;5176;42.622;25.386;2023-01-29T11:55:02;97447.16;;;5.03;95.80
9439;BME280;5176;42.622;25.386;2023-01-29T11:57:34;97446.97;;;4.62;94.71
9439;BME280;5176;42.622;25.386;2023-01-29T12:00:12;97446.34;;;4.56;96.99
9439;BME280;5176;42.622;25.386;2023-01-29T12:02:45;97445.91;;;4.67;100.00
9439;BME280;5176;42.622;25.386;2023-01-29T12:05:15;97438.53;;;4.79;99.59
9439;BME280;5176;42.622;25.386;2023-01-29T12:07:44;97436.53;;;4.86;99.42
9439;BME280;5176;42.622;25.386;2023-01-29T12:10:30;97437.53;;;4.83;97.47
9439;BME280;5176;42.622;25.386;2023-01-29T12:13:06;97435.50;;;4.68;97.49
9439;BME280;5176;42.622;25.386;2023-01-29T12:15:34;97438.59;;;4.78;98.50
9439;BME280;5176;42.622;25.386;2023-01-29T12:18:07;97436.16;;;4.73;98.21
9439;BME280;5176;42.622;25.386;2023-01-29T12:20:41;97439.72;;;4.71;97.24
9439;BME280;5176;42.622;25.386;2023-01-29T12:23:21;97434.16;;;4.80;98.25
9439;BME280;5176;42.622;25.386;2023-01-29T12:25:57;97440.09;;;4.60;88.42
9439;BME280;5176;42.622;25.386;2023-01-29T12:28:38;97436.66;;;4.59;81.96
9439;BME280;5176;42.622;25.386;2023-01-29T12:31:16;97442.81;;;4.57;79.26
9439;BME280;5176;42.622;25.386;2023-01-29T12:33:51;97441.84;;;4.59;79.91
9439;BME280;5176;42.622;25.386;2023-01-29T12:36:23;97440.06;;;4.61;78.53
9439;BME280;5176;42.622;25.386;2023-01-29T12:38:53;97435.50;;;4.68;78.14
9439;BME280;5176;42.622;25.386;2023-01-29T12:41:29;97440.22;;;4.80;79.16
9439;BME280;5176;42.622;25.386;2023-01-29T12:44:04;97437.00;;;4.74;77.97
9439;BME280;5176;42.622;25.386;2023-01-29T12:46:36;97444.50;;;4.81;78.12
9439;BME280;5176;42.622;25.386;2023-01-29T12:49:12;97441.81;;;4.84;77.99
9439;BME280;5176;42.622;25.386;2023-01-29T12:51:48;97429.53;;;4.88;77.74
9439;BME280;5176;42.622;25.386;2023-01-29T12:54:25;97445.19;;;4.86;77.58
9439;BME280;5176;42.622;25.386;2023-01-29T12:56:57;97437.38;;;4.86;76.99
9439;BME280;5176;42.622;25.386;2023-01-29T12:59:31;97442.53;;;4.88;77.87
9439;BME280;5176;42.622;25.386;2023-01-29T13:02:09;97442.53;;;4.88;76.96
9439;BME280;5176;42.622;25.386;2023-01-29T13:04:43;97441.50;;;4.92;77.76
9439;BME280;5176;42.622;25.386;2023-01-29T13:07:15;97444.00;;;4.95;77.58
9439;BME280;5176;42.622;25.386;2023-01-29T13:09:48;97435.69;;;4.85;77.36
9439;BME280;5176;42.622;25.386;2023-01-29T13:12:18;97440.97;;;4.84;77.46
9439;BME280;5176;42.622;25.386;2023-01-29T13:14:52;97435.22;;;4.76;76.61
9439;BME280;5176;42.622;25.386;2023-01-29T13:17:25;97436.06;;;4.76;77.75
9439;BME280;5176;42.622;25.386;2023-01-29T13:19:57;97436.09;;;4.75;77.84
9439;BME280;5176;42.622;25.386;2023-01-29T13:22:28;97437.81;;;4.76;77.57
9439;BME280;5176;42.622;25.386;2023-01-29T13:24:58;97437.84;;;4.74;77.70
9439;BME280;5176;42.622;25.386;2023-01-29T13:27:35;97440.22;;;4.80;77.77
9439;BME280;5176;42.622;25.386;2023-01-29T13:30:06;97436.84;;;4.78;77.43
9439;BME280;5176;42.622;25.386;2023-01-29T13:32:34;97442.88;;;4.79;78.11
9439;BME280;5176;42.622;25.386;2023-01-29T13:35:03;97419.41;;;4.58;78.25
9439;BME280;5176;42.622;25.386;2023-01-29T13:37:34;97437.91;;;4.73;78.51
9439;BME280;5176;42.622;25.386;2023-01-29T13:40:05;97436.16;;;4.73;79.18
9439;BME280;5176;42.622;25.386;2023-01-29T13:42:38;97439.44;;;4.78;78.38
9439;BME280;5176;42.622;25.386;2023-01-29T13:45:18;97442.03;;;4.78;77.31